sensor_id;sensor_type;location;lat;lon;timestamp;pressure;altitude;pressure_sealevel;temperature;humidity
11190;BME280;5651;50.926;4.718;2022-09-14T00:01:40;100627.75;;;18.35;100.00
11190;BME280;5651;50.926;4.718;2022-09-14T00:04:17;100620.66;;;18.37;100.00
11190;BME280;5651;50.926;4.718;2022-09-14T00:06:44;100621.63;;;18.35;100.00
11190;BME280;5651;50.926;4.718;2022-09-14T00:09:14;100614.56;;;18.35;100.00
11190;BME280;5651;50.926;4.718;2022-09-14T00:11:40;100608.66;;;18.29;100.00
11190;BME280;5651;50.926;4.718;2022-09-14T00:14:06;100606.28;;;18.23;100.00
11190;BME280;5651;50.926;4.718;2022-09-14T00:16:35;100601.00;;;18.23;100.00
11190;BME280;5651;50.926;4.718;2022-09-14T00:19:04;100600.53;;;18.13;100.00
11190;BME280;5651;50.926;4.718;2022-09-14T00:21:35;100594.34;;;18.14;100.00
11190;BME280;5651;50.926;4.718;2022-09-14T00:24:02;100597.09;;;18.11;100.00
11190;BME280;5651;50.926;4.718;2022-09-14T00:26:28;100588.75;;;17.99;100.00
11190;BME280;5651;50.926;4.718;2022-09-14T00:28:57;100583.34;;;18.02;100.00
11190;BME280;5651;50.926;4.718;2022-09-14T00:31:25;100585.41;;;17.94;100.00
11190;BME280;5651;50.926;4.718;2022-09-14T00:33:52;100577.81;;;17.86;100.00
11190;BME280;5651;50.926;4.718;2022-09-14T00:36:24;100568.34;;;17.81;100.00
11190;BME280;5651;50.926;4.718;2022-09-14T00:38:51;100576.22;;;17.82;100.00
11190;BME280;5651;50.926;4.718;2022-09-14T00:41:21;100575.34;;;17.82;100.00
11190;BME280;5651;50.926;4.718;2022-09-14T00:46:17;100571.97;;;17.78;100.00
11190;BME280;5651;50.926;4.718;2022-09-14T00:48:43;100571.13;;;17.78;100.00
11190;BME280;5651;50.926;4.718;2022-09-14T00:51:09;100573.78;;;17.78;100.00
11190;BME280;5651;50.926;4.718;2022-09-14T00:53:35;100567.03;;;17.70;100.00
11190;BME280;5651;50.926;4.718;2022-09-14T00:56:01;100568.84;;;17.68;100.00
11190;BME280;5651;50.926;4.718;2022-09-14T00:58:27;100561.00;;;17.67;100.00
11190;BME280;5651;50.926;4.718;2022-09-14T01:00:53;100572.41;;;17.67;100.00
11190;BME280;5651;50.926;4.718;2022-09-14T01:03:19;100568.94;;;17.65;100.00
11190;BME280;5651;50.926;4.718;2022-09-14T01:05:55;100568.19;;;17.63;100.00
11190;BME280;5651;50.926;4.718;2022-09-14T01:11:18;100566.88;;;17.51;100.00
11190;BME280;5651;50.926;4.718;2022-09-14T01:14:03;100566.72;;;17.54;100.00
11190;BME280;5651;50.926;4.718;2022-09-14T01:16:46;100567.97;;;17.46;100.00
11190;BME280;5651;50.926;4.718;2022-09-14T01:19:24;100575.69;;;17.50;100.00
11190;BME280;5651;50.926;4.718;2022-09-14T01:21:54;100571.16;;;17.54;100.00
11190;BME280;5651;50.926;4.718;2022-09-14T01:24:43;100574.94;;;17.47;100.00
11190;BME280;5651;50.926;4.718;2022-09-14T01:27:22;100568.75;;;17.48;100.00
11190;BME280;5651;50.926;4.718;2022-09-14T01:32:26;100568.88;;;17.45;100.00
11190;BME280;5651;50.926;4.718;2022-09-14T01:38:15;100555.88;;;17.40;100.00
11190;BME280;5651;50.926;4.718;2022-09-14T01:40:47;100554.94;;;17.41;100.00
11190;BME280;5651;50.926;4.718;2022-09-14T01:43:35;100558.56;;;17.38;100.00
11190;BME280;5651;50.926;4.718;2022-09-14T01:48:38;100556.03;;;17.35;100.00
11190;BME280;5651;50.926;4.718;2022-09-14T01:51:12;100556.75;;;17.40;100.00
11190;BME280;5651;50.926;4.718;2022-09-14T01:53:46;100554.09;;;17.40;100.00
11190;BME280;5651;50.926;4.718;2022-09-14T01:56:18;100554.09;;;17.40;100.00
11190;BME280;5651;50.926;4.718;2022-09-14T01:58:50;100547.16;;;17.38;100.00
11190;BME280;5651;50.926;4.718;2022-09-14T02:01:23;100548.84;;;17.40;100.00
11190;BME280;5651;50.926;4.718;2022-09-14T02:03:57;100546.22;;;17.40;100.00
11190;BME280;5651;50.926;4.718;2022-09-14T02:06:28;100538.41;;;17.37;100.00
11190;BME280;5651;50.926;4.718;2022-09-14T02:08:56;100528.72;;;17.38;100.00
11190;BME280;5651;50.926;4.718;2022-09-14T02:11:23;100522.59;;;17.37;100.00
11190;BME280;5651;50.926;4.718;2022-09-14T02:13:49;100523.28;;;17.42;97.21
11190;BME280;5651;50.926;4.718;2022-09-14T02:16:15;100527.63;;;17.43;97.87
11190;BME280;5651;50.926;4.718;2022-09-14T02:18:41;100538.50;;;17.34;100.00
11190;BME280;5651;50.926;4.718;2022-09-14T02:21:13;100539.31;;;17.36;99.86
11190;BME280;5651;50.926;4.718;2022-09-14T02:23:40;100544.00;;;17.28;100.00
11190;BME280;5651;50.926;4.718;2022-09-14T02:26:07;100539.72;;;17.25;100.00
11190;BME280;5651;50.926;4.718;2022-09-14T02:28:34;100536.25;;;17.25;100.00
11190;BME280;5651;50.926;4.718;2022-09-14T02:36:53;100527.88;;;17.14;100.00
11190;BME280;5651;50.926;4.718;2022-09-14T02:39:43;100520.78;;;17.16;100.00
11190;BME280;5651;50.926;4.718;2022-09-14T02:42:25;100522.44;;;17.18;100.00
11190;BME280;5651;50.926;4.718;2022-09-14T02:47:53;100512.75;;;17.19;99.82
11190;BME280;5651;50.926;4.718;2022-09-14T02:53:09;100505.84;;;17.16;99.94
11190;BME280;5651;50.926;4.718;2022-09-14T02:55:44;100504.25;;;17.12;100.00
11190;BME280;5651;50.926;4.718;2022-09-14T02:58:12;100498.41;;;17.04;100.00
11190;BME280;5651;50.926;4.718;2022-09-14T03:00:42;100490.75;;;16.98;100.00
11190;BME280;5651;50.926;4.718;2022-09-14T03:03:10;100478.84;;;16.86;100.00
11190;BME280;5651;50.926;4.718;2022-09-14T03:05:36;100475.03;;;16.94;100.00
11190;BME280;5651;50.926;4.718;2022-09-14T03:08:03;100481.31;;;16.90;100.00
11190;BME280;5651;50.926;4.718;2022-09-14T03:10:29;100480.25;;;16.96;100.00
11190;BME280;5651;50.926;4.718;2022-09-14T03:12:56;100474.97;;;16.96;100.00
11190;BME280;5651;50.926;4.718;2022-09-14T03:15:22;100476.28;;;16.84;100.00
11190;BME280;5651;50.926;4.718;2022-09-14T03:17:49;100471.03;;;16.84;100.00
11190;BME280;5651;50.926;4.718;2022-09-14T03:20:18;100473.09;;;16.76;100.00
11190;BME280;5651;50.926;4.718;2022-09-14T03:22:45;100474.16;;;16.70;100.00
11190;BME280;5651;50.926;4.718;2022-09-14T03:25:11;100474.03;;;16.73;100.00
11190;BME280;5651;50.926;4.718;2022-09-14T03:27:36;100482.56;;;16.80;100.00
11190;BME280;5651;50.926;4.718;2022-09-14T03:30:04;100473.00;;;16.77;100.00
11190;BME280;5651;50.926;4.718;2022-09-14T03:32:30;100477.41;;;16.77;100.00
11190;BME280;5651;50.926;4.718;2022-09-14T03:34:56;100475.75;;;16.74;100.00
11190;BME280;5651;50.926;4.718;2022-09-14T03:37:23;100480.00;;;16.78;100.00
11190;BME280;5651;50.926;4.718;2022-09-14T03:39:49;100481.72;;;16.79;100.00
11190;BME280;5651;50.926;4.718;2022-09-14T03:42:14;100478.22;;;16.79;100.00
11190;BME280;5651;50.926;4.718;2022-09-14T03:44:40;100479.88;;;16.82;100.00
11190;BME280;5651;50.926;4.718;2022-09-14T03:47:06;100477.97;;;16.85;100.00
11190;BME280;5651;50.926;4.718;2022-09-14T03:49:33;100469.25;;;16.85;100.00
11190;BME280;5651;50.926;4.718;2022-09-14T03:51:59;100472.69;;;16.87;100.00
11190;BME280;5651;50.926;4.718;2022-09-14T03:54:26;100464.81;;;16.85;100.00
11190;BME280;5651;50.926;4.718;2022-09-14T03:56:52;100464.78;;;16.87;100.00
11190;BME280;5651;50.926;4.718;2022-09-14T03:59:19;100467.28;;;16.90;100.00
11190;BME280;5651;50.926;4.718;2022-09-14T04:01:46;100470.81;;;16.90;100.00
11190;BME280;5651;50.926;4.718;2022-09-14T04:04:12;100469.84;;;16.93;100.00
11190;BME280;5651;50.926;4.718;2022-09-14T04:06:37;100468.03;;;16.95;100.00
11190;BME280;5651;50.926;4.718;2022-09-14T04:09:04;100469.69;;;16.98;100.00
11190;BME280;5651;50.926;4.718;2022-09-14T04:11:30;100471.44;;;16.97;100.00
11190;BME280;5651;50.926;4.718;2022-09-14T04:14:00;100467.06;;;16.98;100.00
11190;BME280;5651;50.926;4.718;2022-09-14T04:16:27;100478.44;;;16.98;100.00
11190;BME280;5651;50.926;4.718;2022-09-14T04:18:53;100476.72;;;16.97;100.00
11190;BME280;5651;50.926;4.718;2022-09-14T04:21:21;100468.81;;;16.97;100.00
11190;BME280;5651;50.926;4.718;2022-09-14T04:23:48;100480.25;;;16.96;100.00
11190;BME280;5651;50.926;4.718;2022-09-14T04:26:18;100476.66;;;16.99;100.00
11190;BME280;5651;50.926;4.718;2022-09-14T04:28:44;100468.81;;;16.97;100.00
11190;BME280;5651;50.926;4.718;2022-09-14T04:31:11;100466.31;;;16.94;100.00
11190;BME280;5651;50.926;4.718;2022-09-14T04:33:38;100458.63;;;16.88;100.00
11190;BME280;5651;50.926;4.718;2022-09-14T04:36:11;100456.91;;;16.87;100.00
11190;BME280;5651;50.926;4.718;2022-09-14T04:38:39;100449.09;;;16.84;100.00
11190;BME280;5651;50.926;4.718;2022-09-14T04:41:07;100451.66;;;16.85;100.00
11190;BME280;5651;50.926;4.718;2022-09-14T04:43:34;100444.81;;;16.81;100.00
11190;BME280;5651;50.926;4.718;2022-09-14T04:46:01;100455.41;;;16.79;100.00
11190;BME280;5651;50.926;4.718;2022-09-14T04:48:30;100453.69;;;16.78;100.00
11190;BME280;5651;50.926;4.718;2022-09-14T04:51:26;100447.50;;;16.79;100.00
11190;BME280;5651;50.926;4.718;2022-09-14T04:53:54;100451.06;;;16.78;100.00
11190;BME280;5651;50.926;4.718;2022-09-14T04:56:29;100443.19;;;16.77;100.00
11190;BME280;5651;50.926;4.718;2022-09-14T04:58:57;100446.81;;;16.74;100.00
11190;BME280;5651;50.926;4.718;2022-09-14T05:01:26;100446.22;;;16.66;100.00
11190;BME280;5651;50.926;4.718;2022-09-14T05:03:53;100449.91;;;16.62;100.00
11190;BME280;5651;50.926;4.718;2022-09-14T05:06:21;100446.97;;;16.46;100.00
11190;BME280;5651;50.926;4.718;2022-09-14T05:08:48;100440.84;;;16.45;100.00
11190;BME280;5651;50.926;4.718;2022-09-14T05:11:20;100437.63;;;16.37;100.00
11190;BME280;5651;50.926;4.718;2022-09-14T05:13:46;100441.13;;;16.38;100.00
11190;BME280;5651;50.926;4.718;2022-09-14T05:16:27;100444.34;;;16.46;100.00
11190;BME280;5651;50.926;4.718;2022-09-14T05:18:58;100432.09;;;16.45;100.00
11190;BME280;5651;50.926;4.718;2022-09-14T05:21:26;100420.66;;;16.46;100.00
11190;BME280;5651;50.926;4.718;2022-09-14T05:23:57;100413.56;;;16.48;100.00
11190;BME280;5651;50.926;4.718;2022-09-14T05:26:25;100401.28;;;16.48;100.00
11190;BME280;5651;50.926;4.718;2022-09-14T05:28:54;100411.09;;;16.43;100.00
11190;BME280;5651;50.926;4.718;2022-09-14T05:31:21;100403.56;;;16.34;100.00
11190;BME280;5651;50.926;4.718;2022-09-14T05:33:48;100398.28;;;16.34;100.00
11190;BME280;5651;50.926;4.718;2022-09-14T05:36:15;100391.84;;;16.43;100.00
11190;BME280;5651;50.926;4.718;2022-09-14T05:38:41;100401.69;;;16.38;100.00
11190;BME280;5651;50.926;4.718;2022-09-14T05:41:11;100409.28;;;16.20;100.00
11190;BME280;5651;50.926;4.718;2022-09-14T05:43:38;100408.44;;;16.20;100.00
11190;BME280;5651;50.926;4.718;2022-09-14T05:46:15;100403.81;;;16.26;100.00
11190;BME280;5651;50.926;4.718;2022-09-14T05:48:41;100409.66;;;16.35;100.00
11190;BME280;5651;50.926;4.718;2022-09-14T05:51:10;100408.59;;;16.40;100.00
11190;BME280;5651;50.926;4.718;2022-09-14T05:53:39;100402.59;;;16.37;100.00
11190;BME280;5651;50.926;4.718;2022-09-14T05:58:34;100386.91;;;16.34;100.00
11190;BME280;5651;50.926;4.718;2022-09-14T06:01:22;100385.84;;;16.39;100.00
11190;BME280;5651;50.926;4.718;2022-09-14T06:03:48;100387.56;;;16.40;100.00
11190;BME280;5651;50.926;4.718;2022-09-14T06:06:16;100391.31;;;16.33;100.00
11190;BME280;5651;50.926;4.718;2022-09-14T06:08:43;100379.75;;;16.37;100.00
11190;BME280;5651;50.926;4.718;2022-09-14T06:11:15;100376.91;;;16.43;100.00
11190;BME280;5651;50.926;4.718;2022-09-14T06:13:41;100368.22;;;16.41;100.00
11190;BME280;5651;50.926;4.718;2022-09-14T06:16:09;100366.50;;;16.40;100.00
11190;BME280;5651;50.926;4.718;2022-09-14T06:18:37;100373.50;;;16.41;100.00
11190;BME280;5651;50.926;4.718;2022-09-14T06:21:03;100378.34;;;16.28;100.00
11190;BME280;5651;50.926;4.718;2022-09-14T06:23:30;100391.31;;;16.33;100.00
11190;BME280;5651;50.926;4.718;2022-09-14T06:25:58;100400.94;;;16.34;100.00
11190;BME280;5651;50.926;4.718;2022-09-14T06:28:25;100406.88;;;16.39;100.00
11190;BME280;5651;50.926;4.718;2022-09-14T06:30:52;100399.78;;;16.41;100.00
11190;BME280;5651;50.926;4.718;2022-09-14T06:33:18;100402.34;;;16.43;100.00
11190;BME280;5651;50.926;4.718;2022-09-14T06:35:57;100399.63;;;16.46;100.00
11190;BME280;5651;50.926;4.718;2022-09-14T06:38:24;100405.78;;;16.45;100.00
11190;BME280;5651;50.926;4.718;2022-09-14T06:40:52;100397.00;;;16.46;100.00
11190;BME280;5651;50.926;4.718;2022-09-14T06:43:18;100398.53;;;16.52;100.00
11190;BME280;5651;50.926;4.718;2022-09-14T06:45:57;100392.47;;;16.50;100.00
11190;BME280;5651;50.926;4.718;2022-09-14T06:48:23;100398.34;;;16.56;100.00
11190;BME280;5651;50.926;4.718;2022-09-14T06:50:49;100394.75;;;16.59;100.00
11190;BME280;5651;50.926;4.718;2022-09-14T06:53:15;100390.53;;;16.55;100.00
11190;BME280;5651;50.926;4.718;2022-09-14T06:55:41;100393.75;;;16.63;100.00
11190;BME280;5651;50.926;4.718;2022-09-14T06:58:09;100391.28;;;16.58;100.00
11190;BME280;5651;50.926;4.718;2022-09-14T07:00:34;100394.00;;;16.55;100.00
11190;BME280;5651;50.926;4.718;2022-09-14T07:03:00;100391.34;;;16.57;100.00
11190;BME280;5651;50.926;4.718;2022-09-14T07:05:26;100391.28;;;16.58;100.00
11190;BME280;5651;50.926;4.718;2022-09-14T07:07:52;100395.63;;;16.59;100.00
11190;BME280;5651;50.926;4.718;2022-09-14T07:10:18;100399.34;;;16.54;100.00
11190;BME280;5651;50.926;4.718;2022-09-14T07:12:44;100401.88;;;16.57;100.00
11190;BME280;5651;50.926;4.718;2022-09-14T07:15:10;100403.50;;;16.59;100.00
11190;BME280;5651;50.926;4.718;2022-09-14T07:17:36;100400.81;;;16.61;100.00
11190;BME280;5651;50.926;4.718;2022-09-14T07:20:03;100409.59;;;16.61;100.00
11190;BME280;5651;50.926;4.718;2022-09-14T07:22:33;100410.69;;;16.54;100.00
11190;BME280;5651;50.926;4.718;2022-09-14T07:24:59;100401.13;;;16.53;100.00
11190;BME280;5651;50.926;4.718;2022-09-14T07:27:24;100409.00;;;16.53;100.00
11190;BME280;5651;50.926;4.718;2022-09-14T07:29:50;100421.06;;;16.59;100.00
11190;BME280;5651;50.926;4.718;2022-09-14T07:32:16;100423.59;;;16.62;100.00
11190;BME280;5651;50.926;4.718;2022-09-14T07:34:42;100435.47;;;16.48;100.00
11190;BME280;5651;50.926;4.718;2022-09-14T07:37:08;100429.16;;;16.53;100.00
11190;BME280;5651;50.926;4.718;2022-09-14T07:39:35;100432.56;;;16.56;100.00
11190;BME280;5651;50.926;4.718;2022-09-14T07:42:00;100432.72;;;16.52;100.00
11190;BME280;5651;50.926;4.718;2022-09-14T07:44:26;100433.47;;;16.55;100.00
11190;BME280;5651;50.926;4.718;2022-09-14T07:46:52;100427.44;;;16.52;100.00
11190;BME280;5651;50.926;4.718;2022-09-14T07:49:18;100428.09;;;16.58;100.00
11190;BME280;5651;50.926;4.718;2022-09-14T07:51:44;100418.38;;;16.60;100.00
11190;BME280;5651;50.926;4.718;2022-09-14T07:54:11;100420.84;;;16.65;100.00
11190;BME280;5651;50.926;4.718;2022-09-14T07:56:38;100422.75;;;16.61;100.00
11190;BME280;5651;50.926;4.718;2022-09-14T07:59:04;100418.16;;;16.67;100.00
11190;BME280;5651;50.926;4.718;2022-09-14T08:01:30;100415.47;;;16.68;100.00
11190;BME280;5651;50.926;4.718;2022-09-14T08:03:59;100415.78;;;16.59;100.00
11190;BME280;5651;50.926;4.718;2022-09-14T08:06:26;100409.59;;;16.61;100.00
11190;BME280;5651;50.926;4.718;2022-09-14T08:08:53;100410.34;;;16.65;100.00
11190;BME280;5651;50.926;4.718;2022-09-14T08:11:21;100404.94;;;16.68;100.00
11190;BME280;5651;50.926;4.718;2022-09-14T08:14:06;100408.38;;;16.70;100.00
11190;BME280;5651;50.926;4.718;2022-09-14T08:16:36;100397.63;;;16.76;100.00
11190;BME280;5651;50.926;4.718;2022-09-14T08:19:05;100395.66;;;16.82;100.00
11190;BME280;5651;50.926;4.718;2022-09-14T08:21:32;100389.56;;;16.81;100.00
11190;BME280;5651;50.926;4.718;2022-09-14T08:23:58;100387.59;;;16.86;100.00
11190;BME280;5651;50.926;4.718;2022-09-14T08:26:26;100390.13;;;16.89;100.00
11190;BME280;5651;50.926;4.718;2022-09-14T08:28:53;100387.00;;;16.79;100.00
11190;BME280;5651;50.926;4.718;2022-09-14T08:31:21;100378.91;;;16.84;100.00
11190;BME280;5651;50.926;4.718;2022-09-14T08:33:59;100374.50;;;16.85;100.00
11190;BME280;5651;50.926;4.718;2022-09-14T08:36:35;100376.16;;;16.87;100.00
11190;BME280;5651;50.926;4.718;2022-09-14T08:39:02;100372.03;;;16.80;100.00
11190;BME280;5651;50.926;4.718;2022-09-14T08:44:05;100360.28;;;16.89;100.00
11190;BME280;5651;50.926;4.718;2022-09-14T08:46:41;100365.53;;;16.90;100.00
11190;BME280;5651;50.926;4.718;2022-09-14T08:49:16;100363.66;;;16.94;100.00
11190;BME280;5651;50.926;4.718;2022-09-14T08:51:44;100365.56;;;16.89;100.00
11190;BME280;5651;50.926;4.718;2022-09-14T08:54:10;100369.13;;;16.88;100.00
11190;BME280;5651;50.926;4.718;2022-09-14T08:56:40;100361.06;;;16.92;100.00
11190;BME280;5651;50.926;4.718;2022-09-14T09:01:58;100372.28;;;16.98;100.00
11190;BME280;5651;50.926;4.718;2022-09-14T09:05:24;100378.28;;;17.01;100.00
11190;BME280;5651;50.926;4.718;2022-09-14T09:07:36;100386.38;;;16.97;100.00
11190;BME280;5651;50.926;4.718;2022-09-14T09:10:04;100395.91;;;16.99;100.00
11190;BME280;5651;50.926;4.718;2022-09-14T09:12:49;100396.22;;;16.90;100.00
11190;BME280;5651;50.926;4.718;2022-09-14T09:15:20;100389.84;;;16.97;100.00
11190;BME280;5651;50.926;4.718;2022-09-14T09:17:51;100403.13;;;16.94;100.00
11190;BME280;5651;50.926;4.718;2022-09-14T09:20:46;100412.34;;;16.80;100.00
11190;BME280;5651;50.926;4.718;2022-09-14T09:23:20;100413.91;;;16.86;100.00
11190;BME280;5651;50.926;4.718;2022-09-14T09:26:03;100419.00;;;16.91;100.00
11190;BME280;5651;50.926;4.718;2022-09-14T09:28:30;100424.50;;;16.85;100.00
11190;BME280;5651;50.926;4.718;2022-09-14T09:30:59;100424.41;;;16.88;100.00
11190;BME280;5651;50.926;4.718;2022-09-14T09:33:29;100425.13;;;16.91;100.00
11190;BME280;5651;50.926;4.718;2022-09-14T09:35:55;100419.72;;;16.96;100.00
11190;BME280;5651;50.926;4.718;2022-09-14T09:38:25;100415.38;;;16.95;100.00
11190;BME280;5651;50.926;4.718;2022-09-14T09:40:58;100413.00;;;16.87;100.00
11190;BME280;5651;50.926;4.718;2022-09-14T09:43:26;100407.47;;;16.71;100.00
11190;BME280;5651;50.926;4.718;2022-09-14T09:45:58;100403.94;;;16.72;100.00
11190;BME280;5651;50.926;4.718;2022-09-14T09:51:06;100403.13;;;16.94;100.00
11190;BME280;5651;50.926;4.718;2022-09-14T09:53:37;100403.13;;;16.94;100.00
11190;BME280;5651;50.926;4.718;2022-09-14T09:56:04;100403.34;;;16.88;100.00
11190;BME280;5651;50.926;4.718;2022-09-14T09:58:36;100408.25;;;16.97;100.00
11190;BME280;5651;50.926;4.718;2022-09-14T10:01:05;100403.00;;;16.97;100.00
11190;BME280;5651;50.926;4.718;2022-09-14T10:03:35;100394.84;;;17.03;100.00
11190;BME280;5651;50.926;4.718;2022-09-14T10:06:04;100403.38;;;17.10;100.00
11190;BME280;5651;50.926;4.718;2022-09-14T10:08:30;100406.03;;;17.10;100.00
11190;BME280;5651;50.926;4.718;2022-09-14T10:11:01;100405.09;;;17.11;100.00
11190;BME280;5651;50.926;4.718;2022-09-14T10:13:33;100411.19;;;17.13;100.00
11190;BME280;5651;50.926;4.718;2022-09-14T10:16:22;100403.53;;;17.07;100.00
11190;BME280;5651;50.926;4.718;2022-09-14T10:18:50;100405.03;;;17.13;100.00
11190;BME280;5651;50.926;4.718;2022-09-14T10:21:18;100400.94;;;17.05;100.00
11190;BME280;5651;50.926;4.718;2022-09-14T10:23:44;100391.94;;;17.11;100.00
11190;BME280;5651;50.926;4.718;2022-09-14T10:28:43;100387.66;;;17.08;100.00
11190;BME280;5651;50.926;4.718;2022-09-14T10:33:46;100381.25;;;17.16;100.00
11190;BME280;5651;50.926;4.718;2022-09-14T10:36:22;100384.03;;;17.11;100.00
11190;BME280;5651;50.926;4.718;2022-09-14T10:39:07;100385.59;;;17.17;100.00
11190;BME280;5651;50.926;4.718;2022-09-14T10:57:55;100391.69;;;17.17;100.00
11190;BME280;5651;50.926;4.718;2022-09-14T11:00:29;100385.84;;;17.10;100.00
11190;BME280;5651;50.926;4.718;2022-09-14T11:03:08;100380.16;;;17.21;100.00
11190;BME280;5651;50.926;4.718;2022-09-14T11:08:33;100382.53;;;17.27;100.00
11190;BME280;5651;50.926;4.718;2022-09-14T11:11:16;100377.13;;;17.31;100.00
11190;BME280;5651;50.926;4.718;2022-09-14T11:24:39;100373.47;;;17.35;100.00
11190;BME280;5651;50.926;4.718;2022-09-14T11:30:10;100379.94;;;17.48;100.00
11190;BME280;5651;50.926;4.718;2022-09-14T11:32:43;100383.19;;;17.33;100.00
11190;BME280;5651;50.926;4.718;2022-09-14T11:35:19;100388.16;;;17.40;100.00
11190;BME280;5651;50.926;4.718;2022-09-14T11:37:58;100398.56;;;17.43;100.00
11190;BME280;5651;50.926;4.718;2022-09-14T11:40:41;100389.50;;;17.29;100.00
11190;BME280;5651;50.926;4.718;2022-09-14T11:43:14;100393.28;;;17.43;100.00
11190;BME280;5651;50.926;4.718;2022-09-14T11:45:53;100390.91;;;17.37;100.00
11190;BME280;5651;50.926;4.718;2022-09-14T11:48:40;100389.06;;;17.39;100.00
11190;BME280;5651;50.926;4.718;2022-09-14T11:51:14;100397.75;;;17.41;100.00
11190;BME280;5651;50.926;4.718;2022-09-14T11:53:41;100399.53;;;17.41;100.00
11190;BME280;5651;50.926;4.718;2022-09-14T11:58:49;100400.78;;;17.32;100.00
11190;BME280;5651;50.926;4.718;2022-09-14T12:01:32;100406.34;;;17.47;100.00
11190;BME280;5651;50.926;4.718;2022-09-14T12:11:39;100396.59;;;17.26;100.00
11190;BME280;5651;50.926;4.718;2022-09-14T12:17:19;100383.13;;;17.34;100.00
11190;BME280;5651;50.926;4.718;2022-09-14T12:19:48;100382.69;;;17.45;100.00
11190;BME280;5651;50.926;4.718;2022-09-14T12:22:48;100377.19;;;17.51;100.00
11190;BME280;5651;50.926;4.718;2022-09-14T12:25:17;100369.47;;;17.24;100.00
11190;BME280;5651;50.926;4.718;2022-09-14T12:27:46;100378.53;;;17.39;100.00
11190;BME280;5651;50.926;4.718;2022-09-14T12:36:00;100376.03;;;17.36;100.00
11190;BME280;5651;50.926;4.718;2022-09-14T12:41:01;100370.94;;;17.32;100.00
11190;BME280;5651;50.926;4.718;2022-09-14T13:04:40;100362.91;;;17.13;100.00
11190;BME280;5651;50.926;4.718;2022-09-14T13:07:14;100361.09;;;17.15;100.00
11190;BME280;5651;50.926;4.718;2022-09-14T13:09:49;100357.09;;;17.26;100.00
11190;BME280;5651;50.926;4.718;2022-09-14T13:12:40;100346.94;;;17.17;100.00
11190;BME280;5651;50.926;4.718;2022-09-14T13:15:20;100341.56;;;17.20;100.00
11190;BME280;5651;50.926;4.718;2022-09-14T13:18:45;100337.13;;;17.21;100.00
11190;BME280;5651;50.926;4.718;2022-09-14T13:20:57;100345.63;;;17.07;100.00
11190;BME280;5651;50.926;4.718;2022-09-14T13:23:37;100340.13;;;17.11;100.00
11190;BME280;5651;50.926;4.718;2022-09-14T13:26:27;100342.09;;;17.06;100.00
11190;BME280;5651;50.926;4.718;2022-09-14T13:28:55;100340.72;;;16.98;100.00
11190;BME280;5651;50.926;4.718;2022-09-14T13:31:29;100334.72;;;16.94;100.00
11190;BME280;5651;50.926;4.718;2022-09-14T13:33:56;100333.84;;;16.93;100.00
11190;BME280;5651;50.926;4.718;2022-09-14T13:36:25;100333.97;;;16.89;100.00
11190;BME280;5651;50.926;4.718;2022-09-14T13:38:53;100334.28;;;16.81;100.00
11190;BME280;5651;50.926;4.718;2022-09-14T13:41:21;100333.13;;;16.88;100.00
11190;BME280;5651;50.926;4.718;2022-09-14T13:43:49;100338.00;;;16.75;100.00
11190;BME280;5651;50.926;4.718;2022-09-14T13:46:16;100333.72;;;16.73;100.00
11190;BME280;5651;50.926;4.718;2022-09-14T13:48:43;100334.47;;;16.76;100.00
11190;BME280;5651;50.926;4.718;2022-09-14T13:51:10;100333.31;;;16.84;100.00
11190;BME280;5651;50.926;4.718;2022-09-14T13:53:43;100332.91;;;16.94;100.00
11190;BME280;5651;50.926;4.718;2022-09-14T13:56:28;100338.25;;;16.93;100.00
11190;BME280;5651;50.926;4.718;2022-09-14T14:04:35;100339.19;;;16.90;100.00
11190;BME280;5651;50.926;4.718;2022-09-14T14:09:48;100321.31;;;16.76;100.00
11190;BME280;5651;50.926;4.718;2022-09-14T14:14:55;100325.66;;;16.77;100.00
11190;BME280;5651;50.926;4.718;2022-09-14T14:17:34;100326.19;;;16.63;100.00
11190;BME280;5651;50.926;4.718;2022-09-14T14:20:36;100313.00;;;16.65;100.00
11190;BME280;5651;50.926;4.718;2022-09-14T14:25:34;100306.00;;;16.64;100.00
11190;BME280;5651;50.926;4.718;2022-09-14T14:28:17;100304.22;;;16.64;100.00
11190;BME280;5651;50.926;4.718;2022-09-14T14:30:44;100308.69;;;16.62;100.00
11190;BME280;5651;50.926;4.718;2022-09-14T14:33:12;100303.16;;;16.46;100.00
11190;BME280;5651;50.926;4.718;2022-09-14T14:35:38;100299.63;;;16.47;100.00
11190;BME280;5651;50.926;4.718;2022-09-14T14:38:04;100298.22;;;16.39;100.00
11190;BME280;5651;50.926;4.718;2022-09-14T14:40:31;100302.75;;;16.34;100.00
11190;BME280;5651;50.926;4.718;2022-09-14T14:42:58;100297.66;;;16.29;100.00
11190;BME280;5651;50.926;4.718;2022-09-14T14:45:27;100296.69;;;16.31;100.00
11190;BME280;5651;50.926;4.718;2022-09-14T14:47:54;100302.09;;;16.28;100.00
11190;BME280;5651;50.926;4.718;2022-09-14T14:50:25;100309.06;;;16.29;100.00
11190;BME280;5651;50.926;4.718;2022-09-14T14:52:51;100309.81;;;16.33;100.00
11190;BME280;5651;50.926;4.718;2022-09-14T14:55:18;100310.81;;;16.29;100.00
11190;BME280;5651;50.926;4.718;2022-09-14T14:57:48;100315.22;;;16.28;100.00
11190;BME280;5651;50.926;4.718;2022-09-14T15:00:17;100314.50;;;16.25;100.00
11190;BME280;5651;50.926;4.718;2022-09-14T15:02:44;100316.06;;;16.29;100.00
11190;BME280;5651;50.926;4.718;2022-09-14T15:05:10;100322.22;;;16.29;100.00
11190;BME280;5651;50.926;4.718;2022-09-14T15:07:37;100319.84;;;16.22;100.00
11190;BME280;5651;50.926;4.718;2022-09-14T15:10:03;100321.47;;;16.26;100.00
11190;BME280;5651;50.926;4.718;2022-09-14T15:12:30;100331.53;;;16.38;100.00
11190;BME280;5651;50.926;4.718;2022-09-14T15:14:57;100335.69;;;16.44;100.00
11190;BME280;5651;50.926;4.718;2022-09-14T15:17:22;100334.78;;;16.45;100.00